Flight Track Log - Related Links

Times and Time Zones

All times are in EDT time to prevent confusion due to time zone crossing. See the AUB1638 flight status page for this flight to view local times or setup timezone preferences in your user account.

Time Position Orientation Groundspeed Altitude Reporting Facility
EDT Latitude Longitude Course Direction KTS MPH feet Rate Location/Type
Fri 08:52:00 AM 48.5619 12.0181 36° Northeast  Level Estimated
Fri 08:53:00 AM 48.6311 12.0959 37° Northeast  Level Estimated
Fri 08:54:00 AM 48.7003 12.1738 37° Northeast  Level Estimated
Fri 08:55:00 AM 48.7695 12.2520 37° Northeast  Level Estimated
Fri 08:56:00 AM 48.8386 12.3304 37° Northeast  Level Estimated
Fri 08:57:00 AM 48.9076 12.4091 37° Northeast  Level Estimated
Fri 08:58:00 AM 48.9766 12.4879 37° Northeast  Level Estimated
Fri 08:59:00 AM 49.0456 12.5670 37° Northeast  Level Estimated
Fri 09:00:00 AM 49.1144 12.6462 37° Northeast  Level Estimated
Fri 09:01:00 AM 49.1833 12.7257 37° Northeast  Level Estimated
Fri 09:02:00 AM 49.2520 12.8055 37° Northeast  Level Estimated
Fri 09:03:00 AM 49.3208 12.8854 37° Northeast  Level Estimated
Fri 09:04:00 AM 49.3894 12.9656 37° Northeast  Level Estimated
Fri 09:05:00 AM 49.4580 13.0460 37° Northeast  Level Estimated
Fri 09:06:00 AM 49.5266 13.1266 37° Northeast  Level Estimated
Fri 09:07:00 AM 49.5951 13.2074 37° Northeast  Level Estimated
Fri 09:08:00 AM 49.6635 13.2885 37° Northeast  Level Estimated
Fri 09:09:00 AM 49.7319 13.3698 38° Northeast  Level Estimated
Fri 09:10:00 AM 49.8002 13.4513 38° Northeast  Level Estimated
Fri 09:11:00 AM 49.8685 13.5331 38° Northeast  Level Estimated
Fri 09:12:00 AM 49.9367 13.6151 38° Northeast  Level Estimated
Fri 09:13:00 AM 50.0049 13.6973 38° Northeast  Level Estimated
Fri 09:14:00 AM 50.0730 13.7797 38° Northeast  Level Estimated
Fri 09:15:00 AM 50.1410 13.8624 38° Northeast  Level Estimated
Fri 09:16:00 AM 50.2090 13.9453 38° Northeast  Level Estimated
Fri 09:17:00 AM 50.2769 14.0285 38° Northeast  Level Estimated
Fri 09:18:00 AM 50.3448 14.1119 38° Northeast  Level Estimated
Fri 09:19:00 AM 50.4126 14.1955 38° Northeast  Level Estimated
Fri 09:20:00 AM 50.4803 14.2794 38° Northeast  Level Estimated
Fri 09:21:00 AM 50.5480 14.3635 38° Northeast  Level Estimated
Fri 09:22:00 AM 50.6156 14.4479 38° Northeast  Level Estimated
Fri 09:23:00 AM 50.6832 14.5325 38° Northeast  Level Estimated
Fri 09:24:00 AM 50.7507 14.6173 38° Northeast  Level Estimated
Fri 09:25:00 AM 50.8181 14.7024 39° Northeast  Level Estimated
Fri 09:26:00 AM 50.8855 14.7878 39° Northeast  Level Estimated
Fri 09:27:00 AM 50.9528 14.8734 39° Northeast  Level Estimated
Fri 09:28:00 AM 51.0200 14.9592 39° Northeast  Level Estimated
Fri 09:29:00 AM 51.0872 15.0453 39° Northeast  Level Estimated
Fri 09:30:00 AM 51.1543 15.1316 39° Northeast  Level Estimated
Fri 09:31:00 AM 51.2214 15.2182 39° Northeast  Level Estimated
Fri 09:32:00 AM 51.2884 15.3050 39° Northeast  Level Estimated
Fri 09:33:00 AM 51.3553 15.3921 39° Northeast  Level Estimated
Fri 09:34:00 AM 51.4222 15.4794 39° Northeast  Level Estimated
Fri 09:35:00 AM 51.4890 15.5670 39° Northeast  Level Estimated
Fri 09:36:00 AM 51.5557 15.6549 39° Northeast  Level Estimated
Fri 09:37:00 AM 51.6224 15.7430 39° Northeast  Level Estimated
Fri 09:38:00 AM 51.6890 15.8314 39° Northeast  Level Estimated
Fri 09:39:00 AM 51.7555 15.9200 39° Northeast  Level Estimated
Fri 09:40:00 AM 51.8220 16.0089 40° Northeast  Level Estimated
Fri 09:41:00 AM 51.8884 16.0980 40° Northeast  Level Estimated
Fri 09:42:00 AM 51.9547 16.1875 40° Northeast  Level Estimated
Fri 09:43:00 AM 52.0210 16.2771 40° Northeast  Level Estimated
Fri 09:44:00 AM 52.0872 16.3671 40° Northeast  Level Estimated
Fri 09:45:00 AM 52.1533 16.4573 40° Northeast  Level Estimated
Fri 09:46:00 AM 52.2194 16.5478 40° Northeast  Level Estimated
Fri 09:47:00 AM 52.2854 16.6386 40° Northeast  Level Estimated
Fri 09:48:00 AM 52.3513 16.7296 40° Northeast  Level Estimated
Fri 09:49:00 AM 52.4171 16.8209 40° Northeast  Level Estimated
Fri 09:50:00 AM 52.4210 16.8263 40° Northeast  Level Estimated
Fri 09:51:00 AM 52.4210 16.8263 72° East  Level Estimated
Fri 09:52:00 AM 52.4210 16.8263 72° East  Level Estimated
Fri 09:53:00 AM 52.4210 16.8263 72° East  Level Estimated
Fri 09:54:00 AM 52.4210 16.8263 72° East  Level Estimated
Fri 09:55:00 AM 52.4210 16.8263 72° East  Level Estimated
Fri 09:56:00 AM 52.4210 16.8263 72° East  Level Estimated
Fri 09:57:00 AM 52.4210 16.8263 72° East  Level Estimated
Fri 09:58:00 AM 52.4210 16.8263 72° East  Level Estimated
Fri 09:59:00 AM 52.4210 16.8263 72° East  Level Estimated
Fri 10:00:00 AM 52.4210 16.8263 72° East  Level Estimated
Fri 10:01:00 AM 52.4210 16.8263 72° East  Level Estimated
Fri 10:02:00 AM 52.4210 16.8263 72° East  Level Estimated
Fri 10:03:00 AM 52.4210 16.8263 72° East  Level Estimated
Fri 10:04:00 AM 52.4210 16.8263 72° East  Level Estimated
Fri 10:05:00 AM 52.4210 16.8263 72° East  Level Estimated

Login

Don't have an account? Register now (free) for customized features, flight alerts, and more!